Aérodrome :
LOGIN :

S'inscrire | Disclaimer

   EN    FR    IT 

 










Légende :    VFR   VFR Marginal   IFR   IFR Intensif   IFR Très Intensif
Visi : 
Plafond : 
>= 8 km
>= 3000ft
5 à 8 km
1000 à 3000 ft
1500m à 5 km
500 à 1000 ft
800 à 1500m
200 à 500 ft
< 800m
< 200 ft
Symboles :   Orages  Brouillard  Fortes neiges  Fortes précipitations  Vent > 20 kt
SIGMETs :   Divers  Orages  Givrage  Turbulence  Onde Orograph.  Cendres Volcan.







- Altitude de l'aérodrome : 82 ft
- Code IATA : ALG


DAAG - Alger Houari Boumedienne

DERNIER METAR :
  • 281130Z 27021KT 9999 FEW033 34/12 Q1011

METARs EXPIRÉS :
  • 281100Z 27016KT 230V300 9999 FEW033 34/12 Q1011
  • 281030Z 29015KT 260V320 9999 FEW033 34/12 Q1011
  • 281000Z 23012KT 190V260 9999 FEW033 33/11 Q1011
  • 280930Z 24013KT 210V270 CAVOK 33/10 Q1011
  • 280900Z 26016KT 220V280 CAVOK 33/10 Q1011

TAF TAF DAAG
Valide du 28 à 12h jusqu'au 29 à 12h UTC


281100Z 2812/2912 32015KT 9999 FEW026
PROB40
TEMPO 2812/2818 32015G25KT
BECMG 2820/2824 24012KT
TEMPO 2900/2904 VRB02KT
BECMG 2908/2911 34014KT
Pas de NOTAMs connus pour ce terrain.



MET'MAP, la Météo Aéronautique d'un coup d'oeil ! - Copyright ORBIFLY Décembre 2007 - Disclaimer

ORBIFLY MET'MAP TEAM :

Programmation & Développement : Alexandra Zaïnal
Conception & Développement : Baudouin d'Aumeries
Co-Programmation & Développement : Marc-Olivier Méhu
Soutien technique & logistique : Manuel Goepfert

Contact : metmap@orbifly.com




SOURCES & CREDITS :

   NOAA